• Join FlightAware (Why Join?)
  • Login
  • US Flag 
08:13AM EDT


 

Airport Tracker/Info


-or-


 

Live Flight TrackerFlight Track Log ✈ CTL13 ✈ 27-Jun-2013 ✈ KBKL - KEYE

Flight Track Log - Related Links

Times and Time Zones

All times are in EDT time to prevent confusion due to time zone crossing. See the CTL13 flight status page for this flight to view local times or setup timezone preferences in your user account.

Time Position Orientation Groundspeed Altitude Reporting Facility
EDT Latitude Longitude Course Direction KTS MPH feet Rate Location/Type
06:40PM 41.5336 -81.6761 343° North 120 138 1,200  Level Cleveland Center
06:41PM 41.5689 -81.6906 343° North 123 142 2,300 900 Climbing Cleveland Center
06:42PM 41.6083 -81.7078 342° North 132 152 3,300 780 Climbing Cleveland Center
06:43PM 41.6183 -81.7442 290° West 141 162 3,900 360 Climbing Cleveland Center
06:44PM 41.6178 -81.7997 269° West 162 186 4,100 60 Climbing Cleveland Center
06:45PM 41.6111 -81.8550 261° West 173 199 4,100  Level Cleveland Center
06:46PM 41.5917 -81.9131 246° West 170 196 4,100 -60 Level Cleveland Center
06:47PM 41.5700 -81.9708 243° Southwest 171 197 4,000 -60 Descending Cleveland Center
06:48PM 41.5486 -82.0258 243° Southwest 172 198 4,000  Level Cleveland Center
06:49PM 41.5311 -82.0864 249° West 170 196 4,100  Climbing Cleveland Center
06:50PM 41.5094 -82.1469 244° Southwest 172 198 4,000 -60 Descending Cleveland Center
06:51PM 41.4878 -82.2047 243° Southwest 170 196 4,000  Level Cleveland Center
06:53PM 41.4342 -82.2824 227° Southwest  Level FlightAware Approximate
07:00PM 41.2926 -82.6595 251° West  Level Estimated
07:01PM 41.2706 -82.7121 241° Southwest  Level FlightAware Approximate
07:02PM 41.2487 -82.7647 241° Southwest  Level FlightAware Approximate
07:03PM 41.2267 -82.8173 241° Southwest  Level FlightAware Approximate
07:04PM 41.2047 -82.8698 241° Southwest  Level FlightAware Approximate
07:05PM 41.1832 -82.9210 241° Southwest  Level FlightAware Approximate
07:06PM 41.1617 -82.9722 241° Southwest  Level FlightAware Approximate
07:07PM 41.1428 -83.0275 251° West  Level FlightAware Approximate
07:08PM 41.1282 -83.0829 251° West  Level FlightAware Approximate
07:09PM 41.1136 -83.1382 251° West  Level FlightAware Approximate
07:10PM 41.0990 -83.1935 251° West  Level FlightAware Approximate
07:11PM 41.0843 -83.2488 251° West  Level FlightAware Approximate
07:12PM 41.0697 -83.3040 251° West  Level FlightAware Approximate
07:13PM 41.0550 -83.3592 251° West  Level FlightAware Approximate
07:14PM 41.0402 -83.4144 251° West  Level FlightAware Approximate
07:15PM 41.0255 -83.4696 251° West  Level FlightAware Approximate
07:15PM 40.9783 -83.4314 250° West 137 158 4,000  Level Indianapolis Center
07:16PM 41.0107 -83.5247 250° West  Level FlightAware Approximate
07:16PM 40.9558 -83.4772 237° Southwest 145 167 4,000  Level Indianapolis Center
07:17PM 40.9959 -83.5799 250° West  Level FlightAware Approximate
07:17PM 40.9292 -83.5306 237° Southwest 152 175 4,000  Level Indianapolis Center
07:18PM 40.9811 -83.6350 250° West  Level FlightAware Approximate
07:18PM 40.9042 -83.5767 234° Southwest 152 175 4,000  Level Indianapolis Center
07:19PM 40.9663 -83.6898 250° West  Level FlightAware Approximate
07:19PM 40.8803 -83.6250 237° Southwest 155 178 4,000  Level Indianapolis Center
07:20PM 40.9515 -83.7446 250° West  Level FlightAware Approximate
07:20PM 40.8558 -83.6725 236° Southwest 156 180 4,000  Level Indianapolis Center
07:21PM 40.8308 -83.7208 236° Southwest 158 182 4,000  Level Indianapolis Center
07:22PM 40.8064 -83.7692 236° Southwest 158 182 4,000  Level Indianapolis Center
07:23PM 40.7831 -83.8156 236° Southwest 155 178 4,000  Level Indianapolis Center
07:24PM 40.7547 -83.8700 236° Southwest 154 177 4,000  Level Indianapolis Center
07:25PM 40.7303 -83.9161 235° Southwest 153 176 4,000  Level Indianapolis Center
07:26PM 40.7058 -83.9628 235° Southwest 153 176 4,000  Level Indianapolis Center
07:28PM 40.6825 -84.0097 237° Southwest 153 176 4,000  Level Indianapolis Center
07:29PM 40.6581 -84.0561 235° Southwest 153 176 4,000  Level Indianapolis Center
07:29PM 40.6422 -84.0867 236° Southwest 155 178 4,000  Level Indianapolis Center
07:30PM 40.6272 -84.1089 228° Southwest 158 182 4,000  Level Indianapolis Center
07:31PM 40.6056 -84.1497 235° Southwest 156 180 4,000 -60 Level Indianapolis Center
07:32PM 40.5789 -84.1981 234° Southwest 159 183 3,900 -60 Descending Indianapolis Center
07:33PM 40.5481 -84.2542 234° Southwest 160 184 3,900  Level Indianapolis Center
07:34PM 40.5247 -84.3036 238° Southwest 160 184 4,000  Climbing Indianapolis Center
07:35PM 40.4986 -84.3506 234° Southwest 158 182 4,000 -60 Level Indianapolis Center
07:36PM 40.4719 -84.3997 235° Southwest 160 184 3,900 -60 Descending Indianapolis Center
07:37PM 40.4464 -84.4456 234° Southwest 159 183 3,900  Level Indianapolis Center
07:38PM 40.4208 -84.4944 236° Southwest 159 183 4,000  Climbing Indianapolis Center
07:39PM 40.3944 -84.5381 232° Southwest 155 178 4,000 -60 Level Indianapolis Center
07:40PM 40.3681 -84.5867 235° Southwest 158 182 3,900  Descending Indianapolis Center
07:41PM 40.3419 -84.6328 233° Southwest 158 182 4,000  Climbing Indianapolis Center
07:42PM 40.3225 -84.6761 240° Southwest 158 182 3,900 -60 Descending Indianapolis Center
07:43PM 40.2933 -84.7311 235° Southwest 158 182 3,900  Level Indianapolis Center
07:44PM 40.2714 -84.7764 238° Southwest 155 178 3,900  Level Indianapolis Center
07:45PM 40.2450 -84.8236 234° Southwest 156 180 4,000  Climbing Indianapolis Center
07:46PM 40.2208 -84.8714 236° Southwest 158 182 3,900 -60 Descending Indianapolis Center
07:47PM 40.1972 -84.9136 234° Southwest 158 182 3,900  Level Indianapolis Center
07:48PM 40.1728 -84.9611 236° Southwest 156 180 4,000  Climbing Indianapolis Center
07:50PM 40.1189 -85.0661 236° Southwest 157 181 3,900 -60 Descending Indianapolis Center
07:51PM 40.0911 -85.1211 237° Southwest 155 178 3,900  Level Indianapolis Center
07:52PM 40.0753 -85.1714 248° West 153 176 4,000  Climbing Indianapolis Center
07:53PM 40.0711 -85.2275 264° West 152 175 4,000 -60 Level Indianapolis Center
07:54PM 40.0639 -85.2789 260° West 149 171 3,900 -60 Descending Indianapolis Center
07:55PM 40.0547 -85.3417 259° West 147 169 3,900  Level Indianapolis Center
07:56PM 40.0475 -85.3931 260° West 146 168 3,900  Level Indianapolis Center
07:57PM 40.0392 -85.4431 258° West 144 166 4,000  Climbing Indianapolis Center
07:58PM 40.0294 -85.4942 256° West 144 166 3,900 -60 Descending Indianapolis Center
07:59PM 40.0214 -85.5453 258° West 145 167 3,900  Level Indianapolis Center
08:00PM 40.0150 -85.5964 261° West 144 166 3,900  Level Indianapolis Center
08:01PM 40.0092 -85.6494 262° West 145 167 3,900  Level Indianapolis Center
08:02PM 40.0017 -85.7131 261° West 147 169 3,900  Level Indianapolis Center
08:04PM 39.9931 -85.7656 258° West 148 170 3,900  Level Indianapolis Center
08:05PM 39.9853 -85.8178 259° West 148 170 3,900  Level Indianapolis Center
08:06PM 39.9783 -85.8708 260° West 149 171 3,900  Level Indianapolis Center
08:07PM 39.9714 -85.9250 261° West 150 173 3,900 -120 Level Indianapolis Center
08:08PM 39.9636 -85.9900 261° West 151 174 3,700 -240 Descending Indianapolis Center